Time,TemperatureF,DewpointF,PressureIn,WindDirection,WindDirectionDegrees,WindSpeedMPH,WindSpeedGustMPH,Humidity,HourlyPrecipIn,Conditions,Clouds,dailyrainin,SoftwareType,DateUTC
2013-04-07 00:00:00,41.9,31.8,29.82,NW,320,0.0,0.0,67,0.00,,SKC,0.05,VWS V12.07,2013-04-07 06:00:00,
2013-04-07 00:30:00,41.6,31.8,29.81,NW,320,0.0,0.0,68,0.00,,SKC,0.05,VWS V12.07,2013-04-07 06:30:00,
2013-04-07 01:00:00,41.2,32.9,29.82,NW,320,0.0,0.0,72,0.00,,SKC,0.05,VWS V12.07,2013-04-07 07:00:00,
2013-04-07 01:30:00,41.2,32.5,29.78,NW,320,0.0,0.0,71,0.00,,SKC,0.00,VWS V12.07,2013-04-07 07:30:00,
2013-04-07 02:00:00,40.9,30.8,29.78,NW,320,0.0,0.0,67,0.00,,SKC,0.00,VWS V12.07,2013-04-07 08:00:00,
2013-04-07 02:30:00,40.5,31.9,29.83,NW,320,0.0,0.0,71,0.00,,SKC,0.00,VWS V12.07,2013-04-07 08:30:00,
2013-04-07 03:00:00,41.2,28.8,29.83,NW,320,0.0,0.0,61,0.00,,SKC,0.00,VWS V12.07,2013-04-07 09:00:00,
2013-04-07 03:30:00,40.8,31.4,29.80,NW,320,0.0,0.0,69,0.00,,SKC,0.00,VWS V12.07,2013-04-07 09:30:00,
2013-04-07 04:00:00,40.3,29.5,29.79,NW,320,0.0,0.0,65,0.00,,SKC,0.00,VWS V12.07,2013-04-07 10:00:00,
2013-04-07 05:00:00,40.6,30.1,29.77,NW,320,0.0,0.0,66,0.00,,SKC,0.00,VWS V12.07,2013-04-07 11:00:00,
2013-04-07 05:30:00,39.3,28.2,29.74,NW,320,0.0,0.0,64,0.00,,SKC,0.00,VWS V12.07,2013-04-07 11:30:00,
2013-04-07 06:00:00,40.9,28.5,29.73,NW,320,0.0,0.0,61,0.00,,SKC,0.00,VWS V12.07,2013-04-07 12:00:00,
2013-04-07 06:30:00,40.8,29.2,29.75,NW,320,0.0,0.0,63,0.00,,SKC,0.00,VWS V12.07,2013-04-07 12:30:00,
2013-04-07 07:00:00,41.2,29.2,29.75,NW,320,0.0,0.0,62,0.00,,SKC,0.00,VWS V12.07,2013-04-07 13:00:00,
2013-04-07 07:30:00,41.1,30.2,29.78,NW,320,0.0,0.0,65,0.00,,SKC,0.00,VWS V12.07,2013-04-07 13:30:00,
2013-04-07 08:00:00,41.5,31.0,29.78,NW,320,0.0,0.0,66,0.00,,SKC,0.00,VWS V12.07,2013-04-07 14:00:00,
2013-04-07 08:30:00,44.1,32.3,29.76,NNE,26,0.0,0.0,63,0.00,,SKC,0.00,VWS V12.07,2013-04-07 14:30:00,
2013-04-07 09:00:00,46.0,33.3,29.75,ESE,105,0.0,5.0,61,0.00,,SKC,0.00,VWS V12.07,2013-04-07 15:00:00,
2013-04-07 09:30:00,46.0,32.5,29.75,NNE,32,0.0,0.0,59,0.00,,SKC,0.00,VWS V12.07,2013-04-07 15:30:00,
2013-04-07 10:00:00,47.1,32.7,29.74,NNE,32,0.0,1.0,57,0.00,,SKC,0.00,VWS V12.07,2013-04-07 16:00:00,
2013-04-07 10:30:00,47.0,34.3,29.78,East,79,0.0,5.0,61,0.00,,SKC,0.00,VWS V12.07,2013-04-07 16:30:00,
2013-04-07 11:00:00,48.5,33.5,29.76,East,79,0.0,5.0,56,0.00,,SKC,0.00,VWS V12.07,2013-04-07 17:00:00,
2013-04-07 11:30:00,51.3,33.3,29.76,NE,35,0.0,1.0,50,0.00,,SKC,0.00,VWS V12.07,2013-04-07 17:30:00,
2013-04-07 12:00:00,50.2,33.7,29.75,East,97,0.0,5.0,53,0.00,,SKC,0.00,VWS V12.07,2013-04-07 18:00:00,
2013-04-07 12:30:00,53.2,30.1,29.74,East,83,3.0,6.0,41,0.00,,SKC,0.00,VWS V12.07,2013-04-07 18:30:00,
2013-04-07 13:30:00,52.8,30.9,29.71,East,92,0.0,0.0,43,0.00,,SKC,0.00,VWS V12.07,2013-04-07 19:30:00,
2013-04-07 14:00:00,52.2,28.0,29.71,West,263,0.0,1.0,39,0.00,,SKC,0.00,VWS V12.07,2013-04-07 20:00:00,
2013-04-07 14:30:00,54.7,26.2,29.67,NNW,337,0.0,2.0,33,0.00,,SKC,0.00,VWS V12.07,2013-04-07 20:30:00,
2013-04-07 15:00:00,55.9,27.2,29.66,NNW,331,0.0,9.0,33,0.00,,SKC,0.00,VWS V12.07,2013-04-07 21:00:00,
2013-04-07 15:30:00,55.9,25.7,29.65,SW,219,0.0,1.0,31,0.00,,SKC,0.00,VWS V12.07,2013-04-07 21:30:00,
2013-04-07 16:00:00,55.4,25.3,29.65,WSW,252,0.0,2.0,31,0.00,,SKC,0.00,VWS V12.07,2013-04-07 22:00:00,
2013-04-07 16:30:00,56.2,24.4,29.62,NE,54,0.0,6.0,29,0.00,,SKC,0.00,VWS V12.07,2013-04-07 22:30:00,
2013-04-07 17:00:00,55.6,23.0,29.60,SE,126,0.0,6.0,28,0.00,,SKC,0.00,VWS V12.07,2013-04-07 23:00:00,
2013-04-07 17:30:00,55.3,23.6,29.59,SE,126,0.0,0.0,29,0.00,,SKC,0.00,VWS V12.07,2013-04-07 23:30:00,
2013-04-07 18:00:00,54.4,26.6,29.59,East,92,0.0,3.0,34,0.00,,SKC,0.00,VWS V12.07,2013-04-08 00:00:00,
2013-04-07 18:30:00,55.7,20.4,29.56,NW,315,0.0,1.0,25,0.00,,SKC,0.00,VWS V12.07,2013-04-08 00:30:00,
2013-04-07 19:00:00,56.0,20.7,29.54,SW,234,0.0,1.0,25,0.00,,SKC,0.00,VWS V12.07,2013-04-08 01:00:00,
2013-04-07 19:30:00,54.5,21.2,29.52,North,360,0.0,0.0,27,0.00,,SKC,0.00,VWS V12.07,2013-04-08 01:30:00,
2013-04-07 21:00:00,51.6,21.2,29.48,North,355,0.0,0.0,30,0.00,,SKC,0.00,VWS V12.07,2013-04-08 03:00:00,
2013-04-07 21:30:00,51.7,19.7,29.47,North,355,0.0,0.0,28,0.00,,SKC,0.00,VWS V12.07,2013-04-08 03:30:00,
2013-04-07 22:00:00,50.8,18.0,29.47,North,355,0.0,0.0,27,0.00,,SKC,0.00,VWS V12.07,2013-04-08 04:00:00,
2013-04-07 22:30:00,52.9,11.8,29.41,West,275,0.0,0.0,19,0.00,,SKC,0.00,VWS V12.07,2013-04-08 04:30:00,
2013-04-07 23:00:00,52.9,19.0,29.42,NNW,342,0.0,0.0,26,0.00,,SKC,0.00,VWS V12.07,2013-04-08 05:00:00,
2013-04-07 23:30:00,52.3,13.5,29.40,NNW,331,0.0,0.0,21,0.00,,SKC,0.00,VWS V12.07,2013-04-08 05:30:00,